createdAt,value
2022-10-13T00:02:44.603Z,1019.49
2022-10-13T00:12:44.912Z,1019.48
2022-10-13T00:22:44.951Z,1019.42
2022-10-13T00:32:45.269Z,1019.44
2022-10-13T00:42:45.289Z,1019.55
2022-10-13T00:52:45.635Z,1019.52
2022-10-13T01:02:45.670Z,1019.58
2022-10-13T01:12:45.966Z,1019.71
2022-10-13T01:22:45.999Z,1019.77
2022-10-13T01:32:46.315Z,1019.85
2022-10-13T01:42:46.337Z,1019.78
2022-10-13T01:52:46.684Z,1019.65
2022-10-13T02:02:46.711Z,1019.55
2022-10-13T02:12:47.040Z,1019.47
2022-10-13T02:22:47.059Z,1019.28
2022-10-13T02:32:47.372Z,1019.34
2022-10-13T02:42:47.386Z,1019.21
2022-10-13T02:52:47.716Z,1019.07
2022-10-13T03:02:47.734Z,1019.16
2022-10-13T03:12:48.063Z,1019.27
2022-10-13T03:22:49.916Z,1019.29
2022-10-13T03:32:48.311Z,1019.40
2022-10-13T03:42:48.341Z,1019.52
2022-10-13T03:52:48.664Z,1019.48
2022-10-13T04:02:48.693Z,1019.55
2022-10-13T04:12:49.015Z,1019.62
2022-10-13T04:22:49.037Z,1019.74
2022-10-13T04:32:49.370Z,1019.67
2022-10-13T04:42:49.387Z,1019.54
2022-10-13T04:52:49.722Z,1019.45
2022-10-13T05:02:49.769Z,1019.51
2022-10-13T05:12:50.060Z,1019.57
2022-10-13T05:22:50.088Z,1019.49
2022-10-13T05:32:53.851Z,1019.33
2022-10-13T05:42:50.517Z,1019.29
2022-10-13T05:52:50.764Z,1019.41
2022-10-13T06:02:50.995Z,1019.35
2022-10-13T06:12:51.332Z,1019.31
2022-10-13T06:22:51.440Z,1019.19
2022-10-13T06:32:51.768Z,1019.28
2022-10-13T06:42:51.586Z,1019.29
2022-10-13T06:52:51.914Z,1019.32
2022-10-13T07:02:51.950Z,1019.29
2022-10-13T07:12:52.264Z,1019.25
2022-10-13T07:22:52.296Z,1019.30
2022-10-13T07:32:52.656Z,1019.32
2022-10-13T07:42:52.686Z,1019.28
2022-10-13T07:52:52.967Z,1019.25
2022-10-13T08:02:52.988Z,1019.14
2022-10-13T08:12:53.318Z,1019.08
2022-10-13T08:22:53.360Z,1019.08
2022-10-13T08:32:53.671Z,1018.81
2022-10-13T08:42:58.080Z,1018.76
2022-10-13T08:52:54.956Z,1018.67
2022-10-13T09:02:54.294Z,1018.72
2022-10-13T09:12:54.316Z,1018.70
2022-10-13T09:22:54.641Z,1018.60
2022-10-13T09:32:54.657Z,1018.57
2022-10-13T09:42:54.995Z,1018.58
2022-10-13T09:52:55.047Z,1018.46
2022-10-13T10:02:55.369Z,1018.51
2022-10-13T10:12:55.449Z,1018.51
2022-10-13T10:22:55.693Z,1018.49
2022-10-13T10:32:55.714Z,1018.51
2022-10-13T10:42:56.036Z,1018.40
2022-10-13T10:52:56.063Z,1018.27
2022-10-13T11:02:56.395Z,1018.14
2022-10-13T11:12:56.428Z,1018.09
2022-10-13T11:22:56.735Z,1017.96
2022-10-13T11:32:56.755Z,1017.94
2022-10-13T11:42:59.267Z,1017.84
2022-10-13T11:52:57.086Z,1017.65
2022-10-13T12:02:57.370Z,1017.25
2022-10-13T12:12:57.415Z,1017.24
2022-10-13T12:22:57.686Z,1017.22
2022-10-13T12:32:57.725Z,1017.09
2022-10-13T12:42:58.134Z,1016.88
2022-10-13T12:52:58.170Z,1016.80
2022-10-13T13:02:59.589Z,1016.75
2022-10-13T13:12:58.615Z,1016.66
2022-10-13T13:22:58.949Z,1016.54
2022-10-13T13:32:58.982Z,1016.46
2022-10-13T13:42:59.311Z,1016.43
2022-10-13T13:52:59.330Z,1016.45
2022-10-13T14:02:59.697Z,1016.39
2022-10-13T14:12:59.720Z,1016.38
2022-10-13T14:23:00.081Z,1016.35
2022-10-13T14:33:00.090Z,1016.38
2022-10-13T14:43:00.560Z,1016.29
2022-10-13T14:53:00.571Z,1016.23
2022-10-13T15:03:02.950Z,1016.12
2022-10-13T15:13:00.984Z,1016.14
2022-10-13T15:23:01.241Z,1016.16
2022-10-13T15:33:01.470Z,1016.14
2022-10-13T15:43:01.800Z,1016.09
2022-10-13T15:53:01.894Z,1016.09
2022-10-13T16:03:02.051Z,1016.12
2022-10-13T16:13:02.075Z,1016.10
2022-10-13T16:23:02.392Z,1015.97
2022-10-13T16:33:02.411Z,1016.09
2022-10-13T16:43:02.743Z,1016.13
2022-10-13T16:53:02.770Z,1016.14
2022-10-13T17:03:03.099Z,1016.27
2022-10-13T17:13:03.118Z,1016.21
2022-10-13T17:23:03.681Z,1016.15
2022-10-13T17:33:04.679Z,1016.07
2022-10-13T17:43:03.917Z,1016.15
2022-10-13T17:53:04.859Z,1016.30
2022-10-13T18:03:04.469Z,1016.29
2022-10-13T18:13:06.066Z,1016.26
2022-10-13T18:23:05.454Z,1015.94
2022-10-13T18:33:05.104Z,1016.09
2022-10-13T18:43:05.177Z,1016.42
2022-10-13T18:53:05.071Z,1016.35
2022-10-13T19:03:05.678Z,1016.50
2022-10-13T19:13:06.184Z,1016.95
2022-10-13T19:23:05.817Z,1016.97
2022-10-13T19:33:05.965Z,1017.30
2022-10-13T19:43:06.174Z,1017.72
2022-10-13T19:53:06.313Z,1017.50
2022-10-13T20:03:06.500Z,1017.21
2022-10-13T20:13:06.391Z,1017.16
2022-10-13T20:23:06.709Z,1017.39
2022-10-13T20:33:06.971Z,1017.53
2022-10-13T20:43:06.839Z,1017.35
2022-10-13T20:53:07.066Z,1017.60
2022-10-13T21:03:07.400Z,1017.58
2022-10-13T21:13:07.426Z,1017.76
2022-10-13T21:23:07.748Z,1017.87
2022-10-13T21:33:07.921Z,1017.70
2022-10-13T21:43:07.998Z,1017.57
2022-10-13T21:53:08.024Z,1017.49
2022-10-13T22:03:08.350Z,1017.54
2022-10-13T22:13:08.393Z,1017.56
2022-10-13T22:23:08.691Z,1017.60
2022-10-13T22:33:08.735Z,1017.65
2022-10-13T22:43:09.041Z,1017.67
2022-10-13T22:53:09.057Z,1017.52
2022-10-13T23:03:09.439Z,1017.46
2022-10-13T23:13:09.429Z,1017.36
2022-10-13T23:23:09.742Z,1017.40
2022-10-13T23:33:09.766Z,1017.36
2022-10-13T23:43:10.104Z,1017.24
2022-10-13T23:53:10.135Z,1017.15
